Time;durP1;ratioP1;P1;durP2;ratioP2;P2;SDS_P1;SDS_P2;PMS_P1;PMS_P2;Temp;Humidity;BMP_temperature;BMP_pressure;BME280_temperature;BME280_humidity;BME280_pressure;Samples;Min_cycle;Max_cycle;Signal;HPM_P1;HPM_P2
2020/12/25 00:00:19;;;;;;;3.53;1.58;;;6.80;82.50;;;;;;5045178;28;20104;-76
2020/12/25 00:02:45;;;;;;;2.00;1.50;;;6.80;82.50;;;;;;5019806;28;20087;-77
2020/12/25 00:05:10;;;;;;;2.55;1.48;;;6.80;82.50;;;;;;5048650;28;20037;-76
2020/12/25 00:07:36;;;;;;;2.53;1.70;;;6.80;82.50;;;;;;5037507;28;20084;-76
2020/12/25 00:10:03;;;;;;;3.90;1.50;;;6.80;82.50;;;;;;5042707;28;20377;-76
2020/12/25 00:12:28;;;;;;;1.73;1.40;;;6.80;82.60;;;;;;5047208;28;20036;-76
2020/12/25 00:14:54;;;;;;;2.72;1.50;;;6.80;82.50;;;;;;5032703;28;20029;-76
2020/12/25 00:17:20;;;;;;;1.98;1.50;;;6.80;82.50;;;;;;5053194;28;20036;-76
2020/12/25 00:19:45;;;;;;;3.47;1.60;;;6.80;82.50;;;;;;5045064;28;20029;-76
2020/12/25 00:22:11;;;;;;;2.13;1.35;;;6.80;82.50;;;;;;5036499;28;20033;-77
2020/12/25 00:24:37;;;;;;;1.70;1.60;;;6.80;82.50;;;;;;5043226;28;20436;-76
2020/12/25 00:27:02;;;;;;;1.88;1.65;;;6.70;82.50;;;;;;5052453;28;20036;-76
2020/12/25 00:29:28;;;;;;;2.63;1.40;;;6.70;82.50;;;;;;5051435;28;20032;-76
2020/12/25 00:31:54;;;;;;;2.22;1.40;;;6.70;82.50;;;;;;5037718;28;20495;-76
2020/12/25 00:34:19;;;;;;;2.40;1.50;;;6.70;82.50;;;;;;5047683;28;20508;-76
2020/12/25 00:36:46;;;;;;;4.05;1.70;;;6.70;82.50;;;;;;5036381;28;20049;-76
2020/12/25 00:39:17;;;;;;;2.08;1.25;;;6.70;82.60;;;;;;5050847;28;20044;-76
2020/12/25 00:41:44;;;;;;;2.70;1.77;;;6.70;82.60;;;;;;5034835;28;20055;-76
2020/12/25 00:44:11;;;;;;;2.97;1.52;;;6.70;82.60;;;;;;5050406;28;20052;-76
2020/12/25 00:46:37;;;;;;;1.50;1.40;;;6.60;82.50;;;;;;5052993;28;20071;-77
2020/12/25 00:49:03;;;;;;;2.40;1.50;;;6.60;82.50;;;;;;5045339;28;20051;-76
2020/12/25 00:51:29;;;;;;;1.85;1.40;;;6.60;82.50;;;;;;5017595;28;20025;-80
2020/12/25 00:53:55;;;;;;;1.40;1.30;;;6.60;82.50;;;;;;5014030;28;20033;-76
2020/12/25 00:56:27;;;;;;;2.50;1.30;;;6.60;82.50;;;;;;5037232;28;20029;-76
2020/12/25 00:58:53;;;;;;;2.67;1.48;;;6.60;82.50;;;;;;5019336;28;20111;-76
2020/12/25 01:01:25;;;;;;;2.13;1.40;;;6.60;82.50;;;;;;5034398;28;20542;-75
2020/12/25 01:03:51;;;;;;;3.15;1.60;;;6.50;82.50;;;;;;5021631;28;20029;-77
2020/12/25 01:06:19;;;;;;;2.63;1.40;;;6.50;82.50;;;;;;5030732;28;20053;-75
2020/12/25 01:08:46;;;;;;;1.55;1.20;;;6.50;82.50;;;;;;5049295;28;20064;-76
2020/12/25 01:11:12;;;;;;;2.63;1.40;;;6.50;82.50;;;;;;5045159;28;20025;-75
2020/12/25 01:13:39;;;;;;;2.15;1.50;;;6.50;82.50;;;;;;5049213;28;20029;-76
2020/12/25 01:16:07;;;;;;;2.17;1.45;;;6.50;82.50;;;;;;5048621;28;20036;-76
2020/12/25 01:18:33;;;;;;;3.15;1.40;;;6.50;83.10;;;;;;5052471;28;20029;-76
2020/12/25 01:20:59;;;;;;;1.70;1.52;;;6.50;82.50;;;;;;5047588;28;20030;-76
2020/12/25 01:23:25;;;;;;;1.42;1.30;;;6.50;82.50;;;;;;5051889;28;20024;-76
2020/12/25 01:25:51;;;;;;;2.05;1.40;;;6.40;82.40;;;;;;5034397;28;20052;-76
2020/12/25 01:28:18;;;;;;;3.28;1.33;;;6.50;82.50;;;;;;5050597;28;20029;-75
2020/12/25 01:30:44;;;;;;;1.90;1.42;;;6.40;82.50;;;;;;5035507;28;20033;-76
2020/12/25 01:33:09;;;;;;;2.08;1.48;;;6.40;82.50;;;;;;5039449;28;20374;-76
2020/12/25 01:35:39;;;;;;;2.05;1.58;;;6.40;82.50;;;;;;5041473;28;20076;-76
2020/12/25 01:38:05;;;;;;;3.25;1.65;;;6.40;82.50;;;;;;5051245;28;20040;-76
2020/12/25 01:40:32;;;;;;;2.85;1.40;;;6.40;82.50;;;;;;5034902;28;20041;-76
2020/12/25 01:42:58;;;;;;;2.22;1.55;;;6.30;82.40;;;;;;5034709;28;20036;-76
2020/12/25 01:45:23;;;;;;;3.00;1.60;;;6.40;82.50;;;;;;5041427;28;20037;-76
2020/12/25 01:47:54;;;;;;;1.50;1.40;;;6.30;82.40;;;;;;5046690;28;20037;-78
2020/12/25 01:50:22;;;;;;;2.85;1.50;;;6.30;82.50;;;;;;5025826;28;20029;-76
2020/12/25 01:52:49;;;;;;;1.50;1.40;;;6.30;82.50;;;;;;5049593;28;20501;-76
2020/12/25 01:55:17;;;;;;;1.90;1.42;;;6.30;82.50;;;;;;5048800;28;20036;-76
2020/12/25 01:57:43;;;;;;;1.88;1.30;;;6.30;82.40;;;;;;5050418;28;20040;-76
2020/12/25 02:00:09;;;;;;;2.10;1.30;;;6.30;82.40;;;;;;5034439;28;20116;-76
2020/12/25 02:02:38;;;;;;;1.58;1.40;;;6.30;82.50;;;;;;5050005;28;20075;-76
2020/12/25 02:05:04;;;;;;;2.35;1.50;;;6.30;82.40;;;;;;5033255;28;20064;-77
2020/12/25 02:07:29;;;;;;;3.25;1.58;;;6.30;82.40;;;;;;5000154;28;20516;-79
2020/12/25 02:09:55;;;;;;;3.25;1.50;;;6.20;82.40;;;;;;5030615;28;20040;-76
2020/12/25 02:12:21;;;;;;;4.53;1.70;;;6.20;82.40;;;;;;5034432;28;20481;-76
2020/12/25 02:14:47;;;;;;;1.85;1.42;;;6.20;82.40;;;;;;5015413;28;20043;-75
2020/12/25 02:17:13;;;;;;;2.42;1.73;;;6.20;82.40;;;;;;5039403;28;20033;-76
2020/12/25 02:19:39;;;;;;;2.60;1.70;;;6.20;82.40;;;;;;5028198;28;20041;-75
2020/12/25 02:22:05;;;;;;;1.65;1.27;;;6.20;82.40;;;;;;5049456;28;20057;-75
2020/12/25 02:24:31;;;;;;;2.47;1.58;;;6.20;82.40;;;;;;5030705;28;20045;-75
2020/12/25 02:26:57;;;;;;;2.20;1.50;;;6.20;82.40;;;;;;5035146;28;20088;-77
2020/12/25 02:29:23;;;;;;;2.70;1.52;;;6.20;82.40;;;;;;5016905;28;20457;-76
2020/12/25 02:31:49;;;;;;;3.47;1.70;;;6.20;82.40;;;;;;5042456;28;20083;-76
2020/12/25 02:34:14;;;;;;;1.60;1.40;;;6.20;82.40;;;;;;5029163;28;20461;-75
2020/12/25 02:36:40;;;;;;;2.33;1.40;;;6.10;82.40;;;;;;5032598;28;20039;-76
2020/12/25 02:39:06;;;;;;;2.35;1.33;;;6.10;82.40;;;;;;5050143;28;20037;-77
2020/12/25 02:41:32;;;;;;;2.65;1.50;;;6.10;82.40;;;;;;5044012;28;20381;-78
2020/12/25 02:43:58;;;;;;;2.42;1.20;;;6.10;82.90;;;;;;5031777;28;20191;-76
2020/12/25 02:46:27;;;;;;;2.58;1.45;;;6.10;82.40;;;;;;5033469;28;20559;-77
2020/12/25 02:48:53;;;;;;;2.67;1.35;;;6.10;82.40;;;;;;5048698;28;20029;-75
2020/12/25 02:51:19;;;;;;;3.58;1.48;;;6.10;82.40;;;;;;5032357;28;20389;-75
2020/12/25 02:53:45;;;;;;;2.28;1.50;;;6.10;82.40;;;;;;5039161;28;20031;-76
2020/12/25 02:56:20;;;;;;;4.53;1.65;;;6.10;82.40;;;;;;5038271;28;20036;-77
2020/12/25 02:58:46;;;;;;;2.13;1.50;;;6.10;82.40;;;;;;5049549;28;20028;-77
2020/12/25 03:01:14;;;;;;;1.65;1.30;;;6.10;82.40;;;;;;5044956;28;20148;-76
2020/12/25 03:03:41;;;;;;;3.05;1.33;;;6.10;82.40;;;;;;5031565;28;20033;-77
2020/12/25 03:06:07;;;;;;;2.10;1.40;;;6.10;82.40;;;;;;5042803;28;20029;-77
2020/12/25 03:08:34;;;;;;;1.77;1.50;;;6.10;82.40;;;;;;5044964;28;20037;-76
2020/12/25 03:11:00;;;;;;;1.65;1.42;;;6.10;82.40;;;;;;5048958;28;20465;-75
2020/12/25 03:13:26;;;;;;;2.10;1.38;;;6.00;82.30;;;;;;5049875;28;20107;-78
2020/12/25 03:15:52;;;;;;;1.52;1.38;;;6.00;82.30;;;;;;5050402;28;20504;-76
2020/12/25 03:18:18;;;;;;;2.25;1.45;;;6.00;82.30;;;;;;5030949;28;20060;-75
2020/12/25 03:20:44;;;;;;;2.08;1.38;;;6.00;82.30;;;;;;5038651;28;20116;-78
2020/12/25 03:23:10;;;;;;;1.75;1.30;;;6.00;82.30;;;;;;5019415;28;20079;-76
2020/12/25 03:25:36;;;;;;;2.53;1.40;;;6.00;82.30;;;;;;5026532;28;20041;-76
2020/12/25 03:28:02;;;;;;;1.65;1.25;;;6.00;82.30;;;;;;5034392;28;20040;-76
2020/12/25 03:30:27;;;;;;;1.58;1.38;;;6.00;82.30;;;;;;5023547;28;20526;-75
2020/12/25 03:32:53;;;;;;;3.03;1.40;;;6.00;82.40;;;;;;5032195;28;20079;-77
2020/12/25 03:35:19;;;;;;;2.53;1.30;;;6.00;82.30;;;;;;5044351;28;20029;-76
2020/12/25 03:37:45;;;;;;;2.35;1.30;;;6.00;82.30;;;;;;5031698;28;20131;-80
2020/12/25 03:40:11;;;;;;;1.40;1.30;;;6.00;82.30;;;;;;4999809;28;20060;-75
2020/12/25 03:42:37;;;;;;;2.63;1.55;;;6.00;82.30;;;;;;5029003;28;20615;-76
2020/12/25 03:45:05;;;;;;;2.47;1.40;;;6.00;82.30;;;;;;5041477;28;20116;-75
2020/12/25 03:47:31;;;;;;;2.80;1.58;;;6.00;82.40;;;;;;5029517;28;20154;-77
2020/12/25 03:49:57;;;;;;;1.55;1.25;;;6.00;82.30;;;;;;5031971;28;20022;-76
2020/12/25 03:52:23;;;;;;;2.55;1.40;;;6.00;82.40;;;;;;5053046;28;20021;-76
2020/12/25 03:54:49;;;;;;;1.40;1.23;;;5.90;82.30;;;;;;5052890;28;20037;-76
2020/12/25 03:57:15;;;;;;;1.30;1.20;;;5.90;82.30;;;;;;5052259;28;20029;-76
2020/12/25 03:59:40;;;;;;;1.42;1.33;;;5.90;82.30;;;;;;5020053;28;20043;-76
2020/12/25 04:02:06;;;;;;;2.60;1.40;;;5.90;82.30;;;;;;5032241;28;20025;-75
2020/12/25 04:04:32;;;;;;;2.20;1.50;;;5.90;82.40;;;;;;5045359;28;20049;-76
2020/12/25 04:06:58;;;;;;;1.83;1.42;;;5.90;82.30;;;;;;5049097;28;20032;-76
2020/12/25 04:09:23;;;;;;;1.40;1.30;;;5.90;82.30;;;;;;5004462;28;20029;-76
2020/12/25 04:11:49;;;;;;;1.95;1.20;;;5.90;82.30;;;;;;5065752;28;20038;-76
2020/12/25 04:14:17;;;;;;;2.58;1.30;;;5.90;82.30;;;;;;5049127;28;20089;-76
2020/12/25 04:16:42;;;;;;;1.73;1.58;;;5.90;82.30;;;;;;5048231;28;20037;-76
2020/12/25 04:19:08;;;;;;;2.05;1.35;;;5.90;82.30;;;;;;5050310;28;20559;-77
2020/12/25 04:21:35;;;;;;;1.60;1.40;;;5.90;82.30;;;;;;5031012;28;20385;-77
2020/12/25 04:24:00;;;;;;;1.38;1.25;;;5.90;82.40;;;;;;5011311;28;20120;-76
2020/12/25 04:26:26;;;;;;;1.15;1.10;;;5.90;82.30;;;;;;5035727;28;20116;-76
2020/12/25 04:28:52;;;;;;;1.10;1.10;;;5.90;82.30;;;;;;5035574;28;20029;-76
2020/12/25 04:31:18;;;;;;;1.25;1.15;;;5.90;82.40;;;;;;5013250;28;20085;-76
2020/12/25 04:33:43;;;;;;;1.13;1.13;;;5.90;82.40;;;;;;5025981;28;20590;-77
2020/12/25 04:36:09;;;;;;;1.90;1.20;;;5.80;82.30;;;;;;5050102;28;20472;-77
2020/12/25 04:38:35;;;;;;;1.20;1.20;;;5.90;82.40;;;;;;5018750;28;20075;-76
2020/12/25 04:41:01;;;;;;;1.55;1.45;;;5.80;82.30;;;;;;5031862;28;20037;-76
2020/12/25 04:43:29;;;;;;;1.20;1.10;;;5.90;82.40;;;;;;5037824;28;20109;-75
2020/12/25 04:45:55;;;;;;;1.40;1.15;;;5.90;82.40;;;;;;5034669;28;20043;-76
2020/12/25 04:48:21;;;;;;;1.65;1.35;;;5.80;83.00;;;;;;5035347;28;20036;-76
2020/12/25 04:50:47;;;;;;;1.13;1.10;;;5.90;82.40;;;;;;5051251;28;20466;-76
2020/12/25 04:53:13;;;;;;;1.75;1.38;;;5.80;82.40;;;;;;5034124;28;20563;-76
2020/12/25 04:55:38;;;;;;;2.00;1.50;;;5.80;82.30;;;;;;5029754;28;20033;-76
2020/12/25 04:58:04;;;;;;;1.40;1.20;;;5.80;82.30;;;;;;5034572;28;20064;-76
2020/12/25 05:00:30;;;;;;;1.67;1.58;;;5.80;82.40;;;;;;5032835;28;20037;-77
2020/12/25 05:02:56;;;;;;;1.70;1.58;;;5.80;82.40;;;;;;5031534;28;20037;-76
2020/12/25 05:05:30;;;;;;;1.27;1.17;;;5.80;82.40;;;;;;5037176;28;20052;-78
2020/12/25 05:08:00;;;;;;;1.23;1.13;;;5.70;82.40;;;;;;5050156;28;20059;-76
2020/12/25 05:10:27;;;;;;;1.20;1.10;;;5.80;82.40;;;;;;5030176;28;20423;-76
2020/12/25 05:12:53;;;;;;;1.15;1.13;;;5.70;82.40;;;;;;5030909;28;20034;-79
2020/12/25 05:15:19;;;;;;;1.35;1.25;;;5.80;82.40;;;;;;5043814;28;20068;-76
2020/12/25 05:17:45;;;;;;;1.50;1.20;;;5.70;82.40;;;;;;5031051;28;20033;-76
2020/12/25 05:20:11;;;;;;;1.50;1.40;;;5.70;82.40;;;;;;5024798;28;20036;-75
2020/12/25 05:22:37;;;;;;;2.60;1.38;;;5.70;82.40;;;;;;5034909;28;20389;-75
2020/12/25 05:25:05;;;;;;;1.35;1.25;;;5.70;82.40;;;;;;5034415;28;20037;-76
2020/12/25 05:27:31;;;;;;;2.10;1.65;;;5.70;82.40;;;;;;5034210;28;20461;-76
2020/12/25 05:30:01;;;;;;;1.17;1.10;;;5.70;82.40;;;;;;5033401;28;20029;-79
2020/12/25 05:32:33;;;;;;;1.95;1.30;;;5.70;82.50;;;;;;5035878;28;20234;-79
2020/12/25 05:34:59;;;;;;;1.20;1.20;;;5.70;82.40;;;;;;5018558;28;20466;-76
2020/12/25 05:37:36;;;;;;;1.55;1.08;;;5.70;82.30;;;;;;4991507;28;20143;-76
2020/12/25 05:40:07;;;;;;;1.42;1.33;;;5.60;82.40;;;;;;5047881;28;20139;-76
2020/12/25 05:42:53;;;;;;;1.20;1.10;;;5.70;82.40;;;;;;5044223;28;20029;-76
2020/12/25 05:45:20;;;;;;;1.20;1.10;;;5.70;82.50;;;;;;5049665;28;20056;-76
2020/12/25 05:48:01;;;;;;;1.00;1.00;;;5.60;82.30;;;;;;5037709;28;20051;-76
2020/12/25 05:50:28;;;;;;;1.40;1.30;;;5.60;82.30;;;;;;5044986;28;20249;-76
2020/12/25 05:52:55;;;;;;;1.30;1.20;;;5.60;82.30;;;;;;5045758;28;20486;-76
2020/12/25 05:55:21;;;;;;;1.88;1.35;;;5.60;82.40;;;;;;5044247;28;20044;-76
2020/12/25 05:57:51;;;;;;;1.10;1.10;;;5.60;82.40;;;;;;5031097;28;20039;-80
2020/12/25 06:00:19;;;;;;;2.08;1.45;;;5.60;82.40;;;;;;5047422;28;20028;-76
2020/12/25 06:02:51;;;;;;;1.00;1.00;;;5.60;82.40;;;;;;5038396;28;20118;-76
2020/12/25 06:05:19;;;;;;;1.23;1.05;;;5.60;82.40;;;;;;5037580;28;20140;-76
2020/12/25 06:07:49;;;;;;;1.25;1.20;;;5.60;82.40;;;;;;5037323;28;20098;-76
2020/12/25 06:10:21;;;;;;;1.63;1.35;;;5.60;82.40;;;;;;5034394;28;20025;-75
2020/12/25 06:12:47;;;;;;;1.52;1.10;;;5.60;82.40;;;;;;5030458;28;20060;-76
2020/12/25 06:15:27;;;;;;;1.10;1.10;;;5.60;82.30;;;;;;5030222;28;20114;-76
2020/12/25 06:18:31;;;;;;;1.20;1.20;;;5.60;82.40;;;;;;5048530;28;20056;-76
2020/12/25 06:21:02;;;;;;;1.42;1.20;;;5.60;82.40;;;;;;5032511;28;20064;-76
2020/12/25 06:23:30;;;;;;;1.17;1.10;;;5.50;82.20;;;;;;5048763;28;20025;-77
2020/12/25 06:25:55;;;;;;;1.05;1.00;;;5.50;82.30;;;;;;5050654;28;20025;-75
2020/12/25 06:28:21;;;;;;;2.03;1.50;;;5.50;82.30;;;;;;5032796;28;20110;-78
2020/12/25 06:30:47;;;;;;;1.88;1.25;;;5.50;82.30;;;;;;5049945;28;20060;-76
2020/12/25 06:33:13;;;;;;;1.15;1.15;;;5.50;82.30;;;;;;5033193;28;20055;-76
2020/12/25 06:35:43;;;;;;;1.45;1.35;;;5.50;82.30;;;;;;5050947;28;20045;-77
2020/12/25 06:38:18;;;;;;;1.40;1.30;;;5.50;82.40;;;;;;5045534;28;20060;-75
2020/12/25 06:40:44;;;;;;;1.33;1.20;;;5.50;82.40;;;;;;5050246;28;20028;-76
2020/12/25 06:43:17;;;;;;;1.20;1.10;;;5.50;82.30;;;;;;5037197;28;20109;-76
2020/12/25 06:45:58;;;;;;;1.88;1.42;;;5.50;82.30;;;;;;5044150;28;20036;-75
2020/12/25 06:48:28;;;;;;;1.20;1.10;;;5.50;82.40;;;;;;5050135;28;20023;-75
2020/12/25 06:51:01;;;;;;;1.30;1.20;;;5.50;82.40;;;;;;5033488;28;20047;-76
2020/12/25 06:53:34;;;;;;;1.33;1.23;;;5.40;82.30;;;;;;5040352;28;20029;-75
2020/12/25 06:56:08;;;;;;;2.35;1.10;;;5.40;82.30;;;;;;5051115;28;20470;-76
2020/12/25 06:58:36;;;;;;;1.10;1.10;;;5.40;82.30;;;;;;5029756;28;20025;-75
2020/12/25 07:01:02;;;;;;;1.27;1.10;;;5.40;82.30;;;;;;5047150;28;20021;-76
2020/12/25 07:03:33;;;;;;;1.30;1.20;;;5.40;82.30;;;;;;5049792;28;20079;-77
2020/12/25 07:06:01;;;;;;;1.52;1.30;;;5.40;82.30;;;;;;5050242;28;20040;-76
2020/12/25 07:08:29;;;;;;;1.40;1.30;;;5.40;82.30;;;;;;5014028;28;20036;-76
2020/12/25 07:11:06;;;;;;;1.38;1.27;;;5.40;82.30;;;;;;5033645;28;20029;-75
2020/12/25 07:13:32;;;;;;;2.47;1.40;;;5.40;82.40;;;;;;5032746;28;20028;-76
2020/12/25 07:15:58;;;;;;;1.48;1.38;;;5.40;82.30;;;;;;5049229;28;20075;-76
2020/12/25 07:18:24;;;;;;;1.30;1.20;;;5.40;82.30;;;;;;5049431;28;20155;-78
2020/12/25 07:20:50;;;;;;;2.03;1.30;;;5.40;82.30;;;;;;5035822;28;20018;-75
2020/12/25 07:23:18;;;;;;;1.45;1.35;;;5.40;82.30;;;;;;5037921;28;20032;-76
2020/12/25 07:25:44;;;;;;;1.30;1.20;;;5.40;82.30;;;;;;5063122;28;20040;-76
2020/12/25 07:28:10;;;;;;;2.15;1.30;;;5.40;82.30;;;;;;5052440;28;20029;-78
2020/12/25 07:30:36;;;;;;;1.38;1.27;;;5.40;82.30;;;;;;5053471;28;20044;-76
2020/12/25 07:33:05;;;;;;;2.63;1.55;;;5.40;82.30;;;;;;5055563;28;20029;-75
2020/12/25 07:35:31;;;;;;;2.75;1.20;;;5.40;82.30;;;;;;5052047;28;20033;-76
2020/12/25 07:37:57;;;;;;;1.95;1.20;;;5.40;82.30;;;;;;5035022;28;20124;-75
2020/12/25 07:40:24;;;;;;;1.70;1.15;;;5.40;82.20;;;;;;5054085;28;20163;-76
2020/12/25 07:42:50;;;;;;;1.70;1.20;;;5.40;82.20;;;;;;5048625;28;20025;-76
2020/12/25 07:45:19;;;;;;;1.40;1.30;;;5.40;82.30;;;;;;5017052;28;20438;-75
2020/12/25 07:47:49;;;;;;;1.48;1.30;;;5.40;82.30;;;;;;5034713;28;20029;-76
2020/12/25 07:50:16;;;;;;;2.63;1.20;;;5.40;82.30;;;;;;5044683;28;20104;-75
2020/12/25 07:52:43;;;;;;;1.55;1.40;;;5.40;82.30;;;;;;5020744;28;20033;-76
2020/12/25 07:55:16;;;;;;;1.45;1.15;;;5.40;82.30;;;;;;5051834;28;20044;-76
2020/12/25 07:57:41;;;;;;;2.22;1.30;;;5.40;82.30;;;;;;5035002;28;20044;-76
2020/12/25 08:00:07;;;;;;;1.73;1.30;;;5.40;82.30;;;;;;5041771;28;20100;-77
2020/12/25 08:02:34;;;;;;;2.05;1.20;;;5.40;82.30;;;;;;5051571;28;20075;-77
2020/12/25 08:05:00;;;;;;;1.50;1.25;;;5.40;82.30;;;;;;5053543;28;20029;-77
2020/12/25 08:07:26;;;;;;;1.98;1.42;;;5.30;82.20;;;;;;5035410;28;20040;-75
2020/12/25 08:09:53;;;;;;;2.58;1.40;;;5.40;82.30;;;;;;5032320;28;20037;-77
2020/12/25 08:12:24;;;;;;;1.60;1.25;;;5.40;82.30;;;;;;5050243;28;20374;-75
2020/12/25 08:14:52;;;;;;;1.90;1.33;;;5.40;82.30;;;;;;5045594;28;20048;-76
2020/12/25 08:17:18;;;;;;;1.30;1.30;;;5.40;82.30;;;;;;5032475;28;20030;-76
2020/12/25 08:19:46;;;;;;;1.50;1.40;;;5.30;82.30;;;;;;5042181;28;20424;-76
2020/12/25 08:22:12;;;;;;;1.30;1.20;;;5.40;82.30;;;;;;5051382;28;20033;-78
2020/12/25 08:24:39;;;;;;;2.65;1.30;;;5.30;82.30;;;;;;5045673;28;20040;-76
2020/12/25 08:27:05;;;;;;;2.17;1.20;;;5.30;82.30;;;;;;5039186;28;20065;-77
2020/12/25 08:29:31;;;;;;;2.28;1.23;;;5.30;82.30;;;;;;5042306;28;20367;-75
2020/12/25 08:32:08;;;;;;;1.38;1.30;;;5.30;82.30;;;;;;5035806;28;20029;-76
2020/12/25 08:34:33;;;;;;;1.35;1.20;;;5.30;82.40;;;;;;5047807;28;20061;-76
2020/12/25 08:37:01;;;;;;;1.90;1.38;;;5.30;82.30;;;;;;5052268;28;20083;-75
2020/12/25 08:39:31;;;;;;;1.63;1.48;;;5.30;82.30;;;;;;5051192;28;20032;-78
2020/12/25 08:41:58;;;;;;;3.97;1.45;;;5.30;82.30;;;;;;5019353;28;20067;-77
2020/12/25 08:44:24;;;;;;;2.42;1.20;;;5.30;82.30;;;;;;5051127;28;20021;-83
2020/12/25 08:46:50;;;;;;;1.77;1.30;;;5.30;82.30;;;;;;5032888;28;20052;-81
2020/12/25 08:49:36;;;;;;;2.20;1.27;;;5.30;82.30;;;;;;5035239;28;20037;-76
2020/12/25 08:52:02;;;;;;;4.85;1.35;;;5.30;82.40;;;;;;5031788;28;20033;-76
2020/12/25 08:54:29;;;;;;;3.53;1.50;;;5.40;82.30;;;;;;5034681;28;20132;-79
2020/12/25 08:56:55;;;;;;;4.93;1.83;;;5.30;82.20;;;;;;5032282;28;20022;-77
2020/12/25 08:59:22;;;;;;;5.70;1.70;;;5.40;82.20;;;;;;5018473;28;20142;-77
2020/12/25 09:01:50;;;;;;;1.45;1.20;;;5.40;82.30;;;;;;5050547;28;20100;-78
2020/12/25 09:04:19;;;;;;;2.85;1.60;;;5.40;82.20;;;;;;5053344;28;20373;-76
2020/12/25 09:06:49;;;;;;;4.75;1.42;;;5.40;82.20;;;;;;5034771;28;20033;-77
2020/12/25 09:09:15;;;;;;;1.88;1.38;;;5.40;82.20;;;;;;5033047;28;20029;-76
2020/12/25 09:11:41;;;;;;;2.05;1.67;;;5.40;82.20;;;;;;5051206;28;20033;-76
2020/12/25 09:14:06;;;;;;;2.40;1.20;;;5.40;82.20;;;;;;5049753;28;20029;-76
2020/12/25 09:16:32;;;;;;;3.95;1.40;;;5.30;82.20;;;;;;5034183;28;20141;-76
2020/12/25 09:18:59;;;;;;;2.38;1.40;;;5.40;82.20;;;;;;5027129;28;20160;-75
2020/12/25 09:21:27;;;;;;;2.92;1.30;;;5.40;82.30;;;;;;5016359;28;20032;-77
2020/12/25 09:23:54;;;;;;;2.60;1.45;;;5.40;82.30;;;;;;5037644;28;20028;-78
2020/12/25 09:26:20;;;;;;;2.45;1.48;;;5.40;82.30;;;;;;5052113;28;20376;-76
2020/12/25 09:28:46;;;;;;;2.05;1.40;;;5.40;82.20;;;;;;5052027;28;20035;-76
2020/12/25 09:31:12;;;;;;;2.55;1.33;;;5.40;82.20;;;;;;5052583;28;20033;-78
2020/12/25 09:33:39;;;;;;;1.65;1.30;;;5.40;82.30;;;;;;5034575;28;20064;-76
2020/12/25 09:36:06;;;;;;;2.88;1.30;;;5.40;82.30;;;;;;5051955;28;20029;-76
2020/12/25 09:38:33;;;;;;;2.40;1.40;;;5.40;82.30;;;;;;5045218;28;20559;-78
2020/12/25 09:41:00;;;;;;;1.38;1.20;;;5.40;82.30;;;;;;5032378;28;20029;-76
2020/12/25 09:43:28;;;;;;;2.58;1.30;;;5.40;82.30;;;;;;5014380;28;20083;-77
2020/12/25 09:45:53;;;;;;;3.25;1.38;;;5.40;82.30;;;;;;5030602;28;20025;-77
2020/12/25 09:48:19;;;;;;;2.90;1.30;;;5.40;82.30;;;;;;5031084;28;20388;-76
2020/12/25 09:50:45;;;;;;;1.42;1.23;;;5.40;82.30;;;;;;5013975;28;20456;-77
2020/12/25 09:53:11;;;;;;;1.38;1.27;;;5.40;82.30;;;;;;5015284;28;20044;-76
2020/12/25 09:55:39;;;;;;;2.60;1.33;;;5.40;82.30;;;;;;5030292;28;20470;-76
2020/12/25 09:58:07;;;;;;;1.88;1.27;;;5.40;82.30;;;;;;5063618;28;20026;-76
2020/12/25 10:00:33;;;;;;;1.95;1.40;;;5.40;82.30;;;;;;5013809;28;20369;-77
2020/12/25 10:02:59;;;;;;;1.90;1.33;;;5.40;82.30;;;;;;5045093;28;20032;-77
2020/12/25 10:05:24;;;;;;;1.80;1.38;;;5.40;82.30;;;;;;5033524;28;20405;-80
2020/12/25 10:07:52;;;;;;;1.73;1.40;;;5.40;82.30;;;;;;5051291;28;20064;-77
2020/12/25 10:10:19;;;;;;;2.45;1.52;;;5.40;82.30;;;;;;5033686;28;20029;-76
2020/12/25 10:12:49;;;;;;;2.28;1.35;;;5.40;82.30;;;;;;5029142;28;20034;-77
2020/12/25 10:15:15;;;;;;;3.13;1.55;;;5.40;82.30;;;;;;5030094;28;20460;-76
2020/12/25 10:17:41;;;;;;;2.67;1.70;;;5.40;82.30;;;;;;5030913;28;20116;-77
2020/12/25 10:20:07;;;;;;;4.43;1.50;;;5.50;82.30;;;;;;5029814;28;20033;-76
2020/12/25 10:22:33;;;;;;;1.48;1.30;;;5.50;82.30;;;;;;5031091;28;20355;-76
2020/12/25 10:24:59;;;;;;;3.22;1.60;;;5.50;82.30;;;;;;5030997;28;20033;-77
2020/12/25 10:27:25;;;;;;;1.80;1.40;;;5.50;82.30;;;;;;5035812;28;20047;-76
2020/12/25 10:29:52;;;;;;;1.42;1.27;;;5.50;82.30;;;;;;5037648;28;20033;-76
2020/12/25 10:32:18;;;;;;;1.98;1.40;;;5.50;82.30;;;;;;5031100;28;20482;-77
2020/12/25 10:34:44;;;;;;;2.53;1.60;;;5.50;82.30;;;;;;5036151;28;20075;-76
2020/12/25 10:37:10;;;;;;;2.17;1.50;;;5.60;82.30;;;;;;5029389;28;20054;-76
2020/12/25 10:39:37;;;;;;;3.22;1.50;;;5.60;82.30;;;;;;5037003;28;20478;-76
2020/12/25 10:42:10;;;;;;;2.38;1.52;;;5.60;82.30;;;;;;5032826;28;20116;-78
2020/12/25 10:44:37;;;;;;;3.25;1.60;;;5.60;82.30;;;;;;5048913;28;20041;-77
2020/12/25 10:47:02;;;;;;;2.33;1.42;;;5.70;82.30;;;;;;5049477;28;20076;-77
2020/12/25 10:49:28;;;;;;;1.95;1.55;;;5.70;82.30;;;;;;5049337;28;20033;-76
2020/12/25 10:51:54;;;;;;;2.83;1.98;;;5.70;82.30;;;;;;5050763;28;20025;-76
2020/12/25 10:54:20;;;;;;;3.33;1.40;;;5.70;82.20;;;;;;5049337;28;20056;-78
2020/12/25 10:56:45;;;;;;;1.55;1.42;;;5.70;82.20;;;;;;5026754;28;20029;-76
2020/12/25 10:59:11;;;;;;;2.63;1.67;;;5.80;82.20;;;;;;4996431;28;20035;-77
2020/12/25 11:01:37;;;;;;;2.05;1.33;;;5.80;82.20;;;;;;5012937;28;20028;-77
2020/12/25 11:04:03;;;;;;;2.15;1.38;;;5.80;82.20;;;;;;5030552;28;20037;-76
2020/12/25 11:06:31;;;;;;;1.40;1.30;;;5.80;82.20;;;;;;5028455;28;20025;-77
2020/12/25 11:08:57;;;;;;;2.25;1.33;;;5.80;82.20;;;;;;5028981;28;20034;-76
2020/12/25 11:11:28;;;;;;;1.65;1.50;;;5.80;82.20;;;;;;5031074;28;20029;-76
2020/12/25 11:13:54;;;;;;;3.05;1.52;;;5.80;82.30;;;;;;5030121;28;20485;-76
2020/12/25 11:16:27;;;;;;;2.35;1.50;;;5.90;82.30;;;;;;5029343;28;20030;-77
2020/12/25 11:18:55;;;;;;;2.17;1.50;;;5.90;82.30;;;;;;5029287;28;20108;-76
2020/12/25 11:21:25;;;;;;;1.30;1.20;;;5.90;82.30;;;;;;5030300;28;20025;-79
2020/12/25 11:23:52;;;;;;;1.63;1.30;;;5.90;82.30;;;;;;5028982;28;20070;-76
2020/12/25 11:26:29;;;;;;;2.85;1.67;;;5.90;82.30;;;;;;5046880;28;20412;-78
2020/12/25 11:28:57;;;;;;;2.60;1.50;;;5.90;82.40;;;;;;5050339;28;20033;-76
2020/12/25 11:31:24;;;;;;;1.30;1.20;;;5.90;82.30;;;;;;5048495;28;20028;-76
2020/12/25 11:33:50;;;;;;;2.25;1.40;;;6.00;82.30;;;;;;5050088;28;20032;-76
2020/12/25 11:36:27;;;;;;;2.70;1.88;;;6.00;82.30;;;;;;5048474;28;20041;-77
2020/12/25 11:38:54;;;;;;;1.40;1.30;;;6.00;82.40;;;;;;5048573;28;20464;-77
2020/12/25 11:41:21;;;;;;;2.70;1.35;;;6.00;82.30;;;;;;5049022;28;20025;-77
2020/12/25 11:43:48;;;;;;;1.67;1.20;;;6.00;82.40;;;;;;5048536;28;20044;-76
2020/12/25 11:46:15;;;;;;;2.30;1.40;;;6.00;82.30;;;;;;5032129;28;20091;-76
2020/12/25 11:48:41;;;;;;;2.28;1.20;;;6.00;82.30;;;;;;5031863;28;20473;-76
2020/12/25 11:51:07;;;;;;;2.65;1.35;;;6.00;82.30;;;;;;5050231;28;20067;-76
2020/12/25 11:53:37;;;;;;;2.13;1.33;;;6.10;82.40;;;;;;5031580;28;20025;-76
2020/12/25 11:56:03;;;;;;;1.45;1.20;;;6.10;82.40;;;;;;5049834;28;20037;-77
2020/12/25 11:58:29;;;;;;;1.88;1.23;;;6.10;82.40;;;;;;5028562;28;20029;-76
2020/12/25 12:00:55;;;;;;;1.58;1.40;;;6.10;82.40;;;;;;5029600;28;20030;-76
2020/12/25 12:03:23;;;;;;;2.30;1.17;;;6.10;82.40;;;;;;5028826;28;20113;-76
2020/12/25 12:05:49;;;;;;;2.28;1.40;;;6.10;82.40;;;;;;5028240;28;20068;-76
2020/12/25 12:08:14;;;;;;;1.98;1.38;;;6.10;82.30;;;;;;5025208;28;20459;-76
2020/12/25 12:10:40;;;;;;;1.30;1.20;;;6.20;82.40;;;;;;5028705;28;20458;-76
2020/12/25 12:13:06;;;;;;;1.38;1.20;;;6.20;82.40;;;;;;5031855;28;20493;-76
2020/12/25 12:15:36;;;;;;;3.03;1.20;;;6.20;82.40;;;;;;5033499;28;20034;-77
2020/12/25 12:18:03;;;;;;;1.38;1.10;;;6.20;82.40;;;;;;5032351;28;20036;-76
2020/12/25 12:20:29;;;;;;;2.25;1.20;;;6.20;82.30;;;;;;5033284;28;20100;-76
2020/12/25 12:22:55;;;;;;;1.88;1.50;;;6.20;82.30;;;;;;5033292;28;20444;-76
2020/12/25 12:25:21;;;;;;;1.25;1.10;;;6.30;82.30;;;;;;5032191;28;20033;-75
2020/12/25 12:27:47;;;;;;;1.88;1.20;;;6.30;82.30;;;;;;5031662;28;20033;-77
2020/12/25 12:30:12;;;;;;;1.83;1.42;;;6.30;82.30;;;;;;5033373;28;20037;-77
2020/12/25 12:32:38;;;;;;;1.50;1.40;;;6.30;82.30;;;;;;5031849;28;20052;-77
2020/12/25 12:35:04;;;;;;;2.25;1.20;;;6.30;82.40;;;;;;5065443;28;20044;-76
2020/12/25 12:37:31;;;;;;;2.00;1.30;;;6.40;82.40;;;;;;5031187;28;20060;-78
2020/12/25 12:39:56;;;;;;;2.65;1.30;;;6.30;82.30;;;;;;5064446;28;20032;-76
2020/12/25 12:42:22;;;;;;;1.55;1.30;;;6.40;82.40;;;;;;5036913;28;20461;-78
2020/12/25 12:44:49;;;;;;;2.83;1.35;;;6.40;82.30;;;;;;5035148;28;20128;-76
2020/12/25 12:47:15;;;;;;;2.22;1.13;;;6.40;82.30;;;;;;5051792;28;20465;-77
2020/12/25 12:49:42;;;;;;;2.17;1.52;;;6.40;82.30;;;;;;5051269;28;20243;-77
2020/12/25 12:52:08;;;;;;;2.08;1.30;;;6.40;82.40;;;;;;5052888;28;20033;-76
2020/12/25 12:54:37;;;;;;;1.50;1.40;;;6.50;82.40;;;;;;5052745;28;20056;-76
2020/12/25 12:57:03;;;;;;;1.40;1.30;;;6.50;82.30;;;;;;5030942;28;20028;-77